createdAt,value
2018-05-27T00:00:03.089Z,22.90
2018-05-27T00:02:31.282Z,22.90
2018-05-27T00:04:59.424Z,22.80
2018-05-27T00:07:27.534Z,22.80
2018-05-27T00:09:56.425Z,22.80
2018-05-27T00:12:24.568Z,22.70
2018-05-27T00:14:52.699Z,22.70
2018-05-27T00:17:20.829Z,22.70
2018-05-27T00:19:48.964Z,22.60
2018-05-27T00:22:17.087Z,22.60
2018-05-27T00:24:45.231Z,22.60
2018-05-27T00:27:14.126Z,22.60
2018-05-27T00:29:43.026Z,22.60
2018-05-27T00:32:11.920Z,22.60
2018-05-27T00:34:40.806Z,22.60
2018-05-27T00:37:08.930Z,22.50
2018-05-27T00:39:37.064Z,22.50
2018-05-27T00:42:05.258Z,22.50
2018-05-27T00:44:34.163Z,22.40
2018-05-27T00:47:02.295Z,22.40
2018-05-27T00:49:30.437Z,22.40
2018-05-27T00:51:58.569Z,22.30
2018-05-27T00:54:27.473Z,22.30
2018-05-27T00:56:56.378Z,22.20
2018-05-27T00:59:25.289Z,22.20
2018-05-27T01:01:53.422Z,22.20
2018-05-27T01:04:21.537Z,22.20
2018-05-27T01:06:49.693Z,22.20
2018-05-27T01:09:18.592Z,22.10
2018-05-27T01:11:47.481Z,22.10
2018-05-27T01:14:16.384Z,22.10
2018-05-27T01:16:45.288Z,22.10
2018-05-27T01:19:14.163Z,22.10
2018-05-27T01:21:43.068Z,22.00
2018-05-27T01:24:11.955Z,22.00
2018-05-27T01:26:40.862Z,22.00
2018-05-27T01:29:09.878Z,22.00
2018-05-27T01:31:38.012Z,22.00
2018-05-27T01:34:06.122Z,21.90
2018-05-27T01:36:34.239Z,21.90
2018-05-27T01:39:02.369Z,21.90
2018-05-27T01:41:31.268Z,21.90
2018-05-27T01:44:00.183Z,21.90
2018-05-27T01:46:28.311Z,21.90
2018-05-27T01:48:56.453Z,21.90
2018-05-27T01:51:24.581Z,21.90
2018-05-27T01:53:53.477Z,21.90
2018-05-27T01:56:22.409Z,21.80
2018-05-27T01:58:50.521Z,21.80
2018-05-27T02:01:18.646Z,21.80
2018-05-27T02:03:46.762Z,21.80
2018-05-27T02:06:14.893Z,21.80
2018-05-27T02:08:43.772Z,21.80
2018-05-27T02:11:12.702Z,21.80
2018-05-27T02:13:40.830Z,21.80
2018-05-27T02:16:08.985Z,21.80
2018-05-27T02:18:37.114Z,21.70
2018-05-27T02:21:06.023Z,21.70
2018-05-27T02:23:34.165Z,21.70
2018-05-27T02:26:02.301Z,21.70
2018-05-27T02:28:30.435Z,21.70
2018-05-27T02:30:59.325Z,21.60
2018-05-27T02:33:28.353Z,21.60
2018-05-27T02:35:56.475Z,21.60
2018-05-27T02:38:24.625Z,21.60
2018-05-27T02:40:52.744Z,21.50
2018-05-27T02:43:20.891Z,21.50
2018-05-27T02:45:49.033Z,21.50
2018-05-27T02:48:17.163Z,21.40
2018-05-27T02:50:45.292Z,21.40
2018-05-27T02:53:13.426Z,21.40
2018-05-27T02:55:41.558Z,21.30
2018-05-27T02:58:09.669Z,21.30
2018-05-27T03:00:37.809Z,21.30
2018-05-27T03:03:05.943Z,21.30
2018-05-27T03:05:34.117Z,21.30
2018-05-27T03:08:02.229Z,21.30
2018-05-27T03:10:30.361Z,21.30
2018-05-27T03:12:58.482Z,21.30
2018-05-27T03:15:26.641Z,21.30
2018-05-27T03:17:54.762Z,21.30
2018-05-27T03:20:22.898Z,21.20
2018-05-27T03:22:51.800Z,21.20
2018-05-27T03:25:19.942Z,21.20
2018-05-27T03:27:48.085Z,21.20
2018-05-27T03:30:16.216Z,21.20
2018-05-27T03:32:44.345Z,21.20
2018-05-27T03:35:12.465Z,21.20
2018-05-27T03:37:40.610Z,21.20
2018-05-27T03:40:08.736Z,21.20
2018-05-27T03:42:37.623Z,21.20
2018-05-27T03:45:06.540Z,21.20
2018-05-27T03:47:34.683Z,21.20
2018-05-27T03:50:02.823Z,21.20
2018-05-27T03:52:30.951Z,21.20
2018-05-27T03:54:59.126Z,21.20
2018-05-27T03:57:28.194Z,21.20
2018-05-27T03:59:56.333Z,21.20
2018-05-27T04:02:24.477Z,21.30
2018-05-27T04:05:10.517Z,21.30
2018-05-27T04:07:57.478Z,21.30
2018-05-27T04:10:25.672Z,21.20
2018-05-27T04:12:54.574Z,21.30
2018-05-27T04:15:23.454Z,21.30
2018-05-27T04:17:52.346Z,21.30
2018-05-27T04:20:20.469Z,21.30
2018-05-27T04:22:48.594Z,21.30
2018-05-27T04:25:16.717Z,21.30
2018-05-27T04:27:44.858Z,21.30
2018-05-27T04:30:12.968Z,21.30
2018-05-27T04:32:41.088Z,21.30
2018-05-27T04:35:09.209Z,21.30
2018-05-27T04:37:37.323Z,21.30
2018-05-27T04:40:05.483Z,21.40
2018-05-27T04:42:33.617Z,21.40
2018-05-27T04:45:01.758Z,21.40
2018-05-27T04:47:29.881Z,21.40
2018-05-27T04:49:58.770Z,21.50
2018-05-27T04:52:26.905Z,21.50
2018-05-27T04:54:55.021Z,21.50
2018-05-27T04:57:23.937Z,21.50
2018-05-27T04:59:52.815Z,21.50
2018-05-27T05:02:21.718Z,21.50
2018-05-27T05:04:50.598Z,21.50
2018-05-27T05:07:18.719Z,21.50
2018-05-27T05:09:46.846Z,21.50
2018-05-27T05:12:14.974Z,21.50
2018-05-27T05:14:43.107Z,21.60
2018-05-27T05:17:11.226Z,21.60
2018-05-27T05:19:39.337Z,21.60
2018-05-27T05:22:07.532Z,21.60
2018-05-27T05:24:35.611Z,21.60
2018-05-27T05:27:03.718Z,21.60
2018-05-27T05:29:32.621Z,21.70
2018-05-27T05:32:00.745Z,21.70
2018-05-27T05:34:28.857Z,21.70
2018-05-27T05:36:57.750Z,21.70
2018-05-27T05:39:26.640Z,21.80
2018-05-27T05:41:54.850Z,21.80
2018-05-27T05:44:22.963Z,21.80
2018-05-27T05:46:51.113Z,21.80
2018-05-27T05:49:19.230Z,21.90
2018-05-27T05:51:47.378Z,21.90
2018-05-27T05:54:15.498Z,21.90
2018-05-27T05:56:43.604Z,21.90
2018-05-27T05:59:11.722Z,21.90
2018-05-27T06:01:39.839Z,22.00
2018-05-27T06:04:08.743Z,22.00
2018-05-27T06:06:37.622Z,22.00
2018-05-27T06:09:05.792Z,22.00
2018-05-27T06:11:33.949Z,22.00
2018-05-27T06:14:02.068Z,22.00
2018-05-27T06:16:30.971Z,22.00
2018-05-27T06:18:59.850Z,22.00
2018-05-27T06:21:28.753Z,22.00
2018-05-27T06:23:57.624Z,22.10
2018-05-27T06:26:25.770Z,22.10
2018-05-27T06:28:53.929Z,22.10
2018-05-27T06:31:22.056Z,22.10
2018-05-27T06:33:50.195Z,22.20
2018-05-27T06:36:18.308Z,22.20
2018-05-27T06:38:46.492Z,22.20
2018-05-27T06:41:14.572Z,22.30
2018-05-27T06:43:42.717Z,22.30
2018-05-27T06:46:10.848Z,22.30
2018-05-27T06:48:39.765Z,22.40
2018-05-27T06:51:07.933Z,22.40
2018-05-27T06:53:36.802Z,22.40
2018-05-27T06:56:04.931Z,22.50
2018-05-27T06:58:33.051Z,22.50
2018-05-27T07:01:01.199Z,22.50
2018-05-27T07:03:29.330Z,22.60
2018-05-27T07:05:58.293Z,22.60
2018-05-27T07:08:26.404Z,22.60
2018-05-27T07:10:55.349Z,22.70
2018-05-27T07:13:23.482Z,22.70
2018-05-27T07:15:51.609Z,22.80
2018-05-27T07:18:19.733Z,22.80
2018-05-27T07:20:48.621Z,22.80
2018-05-27T07:23:17.506Z,22.90
2018-05-27T07:25:45.629Z,22.90
2018-05-27T07:28:13.811Z,23.00
2018-05-27T07:30:42.645Z,23.00
2018-05-27T07:33:10.871Z,23.10
2018-05-27T07:35:38.978Z,23.20
2018-05-27T07:38:07.095Z,23.20
2018-05-27T07:40:36.040Z,23.30
2018-05-27T07:43:04.122Z,23.40
2018-05-27T07:45:32.236Z,23.50
2018-05-27T07:48:00.359Z,23.70
2018-05-27T07:50:28.505Z,23.90
2018-05-27T07:52:57.377Z,24.10
2018-05-27T07:55:25.515Z,24.20
2018-05-27T07:57:53.631Z,24.30
2018-05-27T08:00:21.782Z,24.40
2018-05-27T08:02:49.893Z,24.50
2018-05-27T08:05:18.008Z,24.60
2018-05-27T08:07:46.141Z,24.60
2018-05-27T08:10:14.296Z,24.70
2018-05-27T08:12:42.443Z,24.70
2018-05-27T08:15:10.827Z,24.80
2018-05-27T08:17:38.957Z,24.80
2018-05-27T08:20:07.124Z,24.80
2018-05-27T08:22:35.242Z,24.90
2018-05-27T08:25:04.144Z,24.90
2018-05-27T08:27:32.277Z,25.00
2018-05-27T08:30:00.396Z,25.10
2018-05-27T08:32:28.526Z,25.10
2018-05-27T08:34:56.688Z,25.10
2018-05-27T08:37:24.823Z,25.20
2018-05-27T08:39:53.736Z,25.20
2018-05-27T08:42:21.882Z,25.20
2018-05-27T08:44:50.784Z,25.30
2018-05-27T08:47:19.704Z,25.30
2018-05-27T08:49:47.845Z,25.30
2018-05-27T08:52:16.781Z,25.30
2018-05-27T08:54:44.904Z,25.30
2018-05-27T08:57:13.051Z,25.30
2018-05-27T08:59:41.224Z,25.40
2018-05-27T09:02:09.368Z,25.40
2018-05-27T09:04:38.269Z,25.40
2018-05-27T09:07:06.397Z,25.40
2018-05-27T09:09:34.513Z,25.40
2018-05-27T09:12:03.405Z,25.40
2018-05-27T09:14:32.291Z,25.40
2018-05-27T09:17:00.413Z,25.40
2018-05-27T09:19:28.534Z,25.50
2018-05-27T09:21:57.458Z,25.50
2018-05-27T09:24:26.342Z,25.50
2018-05-27T09:26:55.211Z,25.50
2018-05-27T09:29:23.326Z,25.50
2018-05-27T09:31:52.214Z,25.60
2018-05-27T09:34:21.132Z,25.60
2018-05-27T09:36:49.258Z,25.60
2018-05-27T09:39:17.458Z,25.60
2018-05-27T09:41:46.398Z,25.60
2018-05-27T09:44:14.579Z,25.60
2018-05-27T09:46:42.803Z,25.60
2018-05-27T09:49:10.975Z,25.60
2018-05-27T09:51:39.082Z,25.60
2018-05-27T09:54:07.223Z,25.60
2018-05-27T09:56:35.378Z,25.60
2018-05-27T09:59:03.953Z,25.60
2018-05-27T10:01:32.135Z,25.60
2018-05-27T10:04:00.253Z,25.70
2018-05-27T10:06:28.381Z,25.70
2018-05-27T10:08:56.807Z,25.70
2018-05-27T10:11:24.951Z,25.70
2018-05-27T10:13:53.070Z,25.80
2018-05-27T10:16:21.185Z,25.80
2018-05-27T10:18:49.318Z,25.80
2018-05-27T10:21:17.428Z,25.80
2018-05-27T10:23:46.328Z,25.90
2018-05-27T10:26:15.203Z,25.90
2018-05-27T10:28:43.322Z,25.90
2018-05-27T10:31:11.425Z,26.00
2018-05-27T10:33:39.577Z,26.00
2018-05-27T10:36:07.710Z,26.00
2018-05-27T10:38:37.301Z,26.10
2018-05-27T10:41:05.443Z,26.10
2018-05-27T10:43:33.610Z,26.20
2018-05-27T10:46:01.778Z,26.20
2018-05-27T10:48:29.898Z,26.20
2018-05-27T10:50:58.025Z,26.30
2018-05-27T10:53:26.915Z,26.30
2018-05-27T10:55:55.088Z,26.40
2018-05-27T10:58:24.012Z,26.40
2018-05-27T11:00:52.184Z,26.40
2018-05-27T11:03:21.056Z,26.50
2018-05-27T11:05:49.233Z,26.50
2018-05-27T11:08:17.349Z,26.60
2018-05-27T11:10:45.480Z,26.60
2018-05-27T11:13:13.613Z,26.60
2018-05-27T11:15:41.726Z,26.70
2018-05-27T11:18:09.888Z,26.70
2018-05-27T11:20:38.901Z,26.80
2018-05-27T11:23:07.770Z,26.80
2018-05-27T11:25:37.220Z,26.90
2018-05-27T11:28:06.107Z,26.90
2018-05-27T11:30:34.258Z,26.90
2018-05-27T11:33:02.375Z,27.00
2018-05-27T11:35:31.334Z,27.00
2018-05-27T11:37:59.405Z,27.00
2018-05-27T11:40:27.533Z,27.10
2018-05-27T11:42:55.664Z,27.10
2018-05-27T11:45:24.901Z,27.10
2018-05-27T11:47:53.053Z,27.20
2018-05-27T11:50:21.231Z,27.20
2018-05-27T11:52:49.352Z,27.20
2018-05-27T11:55:18.232Z,27.30
2018-05-27T11:57:47.125Z,27.30
2018-05-27T12:00:17.779Z,27.30
2018-05-27T12:02:46.688Z,27.30
2018-05-27T12:05:14.890Z,27.30
2018-05-27T12:07:43.026Z,27.40
2018-05-27T12:10:11.891Z,27.40
2018-05-27T12:12:40.030Z,27.40
2018-05-27T12:15:08.156Z,27.50
2018-05-27T12:17:37.153Z,27.50
2018-05-27T12:20:06.297Z,27.50
2018-05-27T12:22:34.427Z,27.50
2018-05-27T12:25:02.602Z,27.60
2018-05-27T12:27:31.500Z,27.60
2018-05-27T12:29:59.648Z,27.60
2018-05-27T12:32:27.782Z,27.70
2018-05-27T12:34:56.707Z,27.70
2018-05-27T12:37:24.837Z,27.70
2018-05-27T12:39:52.956Z,27.70
2018-05-27T12:42:21.152Z,27.70
2018-05-27T12:44:49.281Z,27.70
2018-05-27T12:47:18.202Z,27.80
2018-05-27T12:49:46.298Z,27.80
2018-05-27T12:52:14.430Z,27.80
2018-05-27T12:54:43.304Z,27.80
2018-05-27T12:57:11.429Z,27.80
2018-05-27T12:59:39.534Z,27.80
2018-05-27T13:02:07.734Z,27.90
2018-05-27T13:04:35.866Z,27.90
2018-05-27T13:07:03.995Z,27.90
2018-05-27T13:09:32.101Z,27.90
2018-05-27T13:12:00.997Z,27.90
2018-05-27T13:14:29.194Z,27.90
2018-05-27T13:16:57.508Z,27.90
2018-05-27T13:19:25.441Z,28.00
2018-05-27T13:21:53.567Z,28.00
2018-05-27T13:24:21.682Z,28.00
2018-05-27T13:26:50.567Z,28.00
2018-05-27T13:29:19.460Z,28.10
2018-05-27T13:31:48.353Z,28.10
2018-05-27T13:34:17.242Z,28.10
2018-05-27T13:36:45.461Z,28.10
2018-05-27T13:39:13.700Z,28.10
2018-05-27T13:41:41.807Z,28.10
2018-05-27T13:44:09.965Z,28.10
2018-05-27T13:46:38.870Z,28.10
2018-05-27T13:49:07.747Z,28.20
2018-05-27T13:51:36.676Z,28.20
2018-05-27T13:54:04.806Z,28.20
2018-05-27T13:56:32.958Z,28.20
2018-05-27T13:59:01.065Z,28.20
2018-05-27T14:01:29.258Z,28.20
2018-05-27T14:03:58.147Z,28.30
2018-05-27T14:06:26.288Z,28.30
2018-05-27T14:08:54.458Z,28.30
2018-05-27T14:11:22.577Z,28.30
2018-05-27T14:13:50.706Z,28.30
2018-05-27T14:16:18.833Z,28.30
2018-05-27T14:18:46.963Z,28.30
2018-05-27T14:21:15.079Z,28.30
2018-05-27T14:23:43.203Z,28.30
2018-05-27T14:26:11.305Z,28.30
2018-05-27T14:28:40.487Z,28.30
2018-05-27T14:31:08.649Z,28.30
2018-05-27T14:33:36.793Z,28.40
2018-05-27T14:36:04.947Z,28.30
2018-05-27T14:38:33.114Z,28.30
2018-05-27T14:41:01.237Z,28.40
2018-05-27T14:43:30.132Z,28.40
2018-05-27T14:45:59.063Z,28.40
2018-05-27T14:48:27.204Z,28.40
2018-05-27T14:50:55.354Z,28.30
2018-05-27T14:53:23.482Z,28.30
2018-05-27T14:55:52.372Z,28.30
2018-05-27T14:58:21.261Z,28.30
2018-05-27T15:00:50.165Z,28.40
2018-05-27T15:03:19.060Z,28.30
2018-05-27T15:05:47.954Z,28.30
2018-05-27T15:08:16.895Z,28.30
2018-05-27T15:10:45.032Z,28.30
2018-05-27T15:13:13.155Z,28.30
2018-05-27T15:15:41.263Z,28.30
2018-05-27T15:18:09.389Z,28.30
2018-05-27T15:20:37.504Z,28.30
2018-05-27T15:23:05.635Z,28.30
2018-05-27T15:25:33.762Z,28.20
2018-05-27T15:28:01.923Z,28.20
2018-05-27T15:30:30.072Z,28.20
2018-05-27T15:32:58.227Z,28.20
2018-05-27T15:35:26.364Z,28.20
2018-05-27T15:37:54.470Z,28.20
2018-05-27T15:40:23.376Z,28.20
2018-05-27T15:42:52.254Z,28.20
2018-05-27T15:45:21.129Z,28.20
2018-05-27T15:47:49.258Z,28.20
2018-05-27T15:50:17.357Z,28.20
2018-05-27T15:52:45.468Z,28.20
2018-05-27T15:55:13.573Z,28.20
2018-05-27T15:57:42.466Z,28.20
2018-05-27T16:00:11.342Z,28.20
2018-05-27T16:02:39.473Z,28.20
2018-05-27T16:05:07.595Z,28.20
2018-05-27T16:07:35.708Z,28.20
2018-05-27T16:10:03.835Z,28.20
2018-05-27T16:12:31.949Z,28.20
2018-05-27T16:15:00.832Z,28.20
2018-05-27T16:17:29.743Z,28.20
2018-05-27T16:19:58.683Z,28.20
2018-05-27T16:22:26.791Z,28.20
2018-05-27T16:24:55.676Z,28.20
2018-05-27T16:27:23.799Z,28.20
2018-05-27T16:29:51.910Z,28.20
2018-05-27T16:32:20.044Z,28.20
2018-05-27T16:34:48.914Z,28.20
2018-05-27T16:37:17.797Z,28.20
2018-05-27T16:39:45.892Z,28.30
2018-05-27T16:42:14.784Z,28.30
2018-05-27T16:44:43.652Z,28.30
2018-05-27T16:47:11.759Z,28.30
2018-05-27T16:49:40.667Z,28.30
2018-05-27T16:52:09.548Z,28.30
2018-05-27T16:54:38.522Z,28.30
2018-05-27T16:57:06.638Z,28.30
2018-05-27T16:59:35.538Z,28.30
2018-05-27T17:02:03.661Z,28.30
2018-05-27T17:04:31.787Z,28.30
2018-05-27T17:07:00.735Z,28.30
2018-05-27T17:09:28.892Z,28.30
2018-05-27T17:11:57.068Z,28.30
2018-05-27T17:14:25.237Z,28.30
2018-05-27T17:16:53.350Z,28.30
2018-05-27T17:19:21.466Z,28.30
2018-05-27T17:21:50.373Z,28.30
2018-05-27T17:24:18.548Z,28.30
2018-05-27T17:26:46.669Z,28.30
2018-05-27T17:29:14.782Z,28.30
2018-05-27T17:31:43.794Z,28.30
2018-05-27T17:34:11.945Z,28.20
2018-05-27T17:36:40.097Z,28.30
2018-05-27T17:39:08.210Z,28.10
2018-05-27T17:41:36.432Z,28.20
2018-05-27T17:44:04.568Z,28.20
2018-05-27T17:46:33.443Z,28.20
2018-05-27T17:49:01.589Z,28.20
2018-05-27T17:51:29.703Z,28.20
2018-05-27T17:53:57.826Z,28.20
2018-05-27T17:56:25.942Z,28.20
2018-05-27T17:58:54.097Z,28.20
2018-05-27T18:01:22.215Z,28.20
2018-05-27T18:03:51.169Z,28.20
2018-05-27T18:06:19.305Z,28.10
2018-05-27T18:08:48.190Z,28.10
2018-05-27T18:11:16.479Z,28.10
2018-05-27T18:13:45.359Z,28.10
2018-05-27T18:16:13.481Z,28.10
2018-05-27T18:18:41.586Z,28.10
2018-05-27T18:21:09.718Z,28.10
2018-05-27T18:23:38.586Z,28.00
2018-05-27T18:26:06.696Z,28.00
2018-05-27T18:28:34.824Z,28.00
2018-05-27T18:31:02.924Z,27.90
2018-05-27T18:33:31.147Z,27.90
2018-05-27T18:35:59.278Z,27.90
2018-05-27T18:38:27.402Z,27.90
2018-05-27T18:40:55.517Z,27.80
2018-05-27T18:43:23.629Z,27.80
2018-05-27T18:45:51.807Z,27.80
2018-05-27T18:48:20.797Z,27.80
2018-05-27T18:50:49.681Z,27.70
2018-05-27T18:53:17.804Z,27.70
2018-05-27T18:55:45.911Z,27.70
2018-05-27T18:58:14.034Z,27.60
2018-05-27T19:00:42.897Z,27.60
2018-05-27T19:03:10.997Z,27.60
2018-05-27T19:05:39.916Z,27.60
2018-05-27T19:08:08.097Z,27.50
2018-05-27T19:10:36.281Z,27.50
2018-05-27T19:13:04.437Z,27.50
2018-05-27T19:15:32.544Z,27.40
2018-05-27T19:18:00.713Z,27.40
2018-05-27T19:20:28.846Z,27.40
2018-05-27T19:22:57.782Z,27.30
2018-05-27T19:25:25.975Z,27.30
2018-05-27T19:27:54.103Z,27.30
2018-05-27T19:30:23.024Z,27.20
2018-05-27T19:32:51.151Z,27.20
2018-05-27T19:35:19.261Z,27.20
2018-05-27T19:37:48.160Z,27.20
2018-05-27T19:40:17.046Z,27.10
2018-05-27T19:42:45.935Z,27.10
2018-05-27T19:45:14.068Z,27.10
2018-05-27T19:47:42.194Z,27.00
2018-05-27T19:50:11.105Z,27.00
2018-05-27T19:52:40.019Z,27.00
2018-05-27T19:55:08.156Z,27.00
2018-05-27T19:57:36.283Z,26.90
2018-05-27T20:00:04.401Z,26.90
2018-05-27T20:02:32.543Z,26.90
2018-05-27T20:05:00.718Z,26.80
2018-05-27T20:07:28.849Z,26.80
2018-05-27T20:09:57.012Z,26.80
2018-05-27T20:12:25.143Z,26.80
2018-05-27T20:14:53.320Z,26.70
2018-05-27T20:17:21.456Z,26.70
2018-05-27T20:19:49.582Z,26.70
2018-05-27T20:22:17.686Z,26.60
2018-05-27T20:24:45.817Z,26.60
2018-05-27T20:27:14.693Z,26.60
2018-05-27T20:29:43.573Z,26.60
2018-05-27T20:32:11.692Z,26.50
2018-05-27T20:34:39.810Z,26.50
2018-05-27T20:37:07.926Z,26.50
2018-05-27T20:39:36.800Z,26.40
2018-05-27T20:42:04.948Z,26.40
2018-05-27T20:44:33.095Z,26.40
2018-05-27T20:47:01.945Z,26.40
2018-05-27T20:49:30.105Z,26.30
2018-05-27T20:51:58.222Z,26.30
2018-05-27T20:54:27.113Z,26.30
2018-05-27T20:56:55.997Z,26.20
2018-05-27T20:59:24.101Z,26.20
2018-05-27T21:01:52.216Z,26.20
2018-05-27T21:04:20.357Z,26.20
2018-05-27T21:06:49.229Z,26.20
2018-05-27T21:09:17.340Z,26.10
2018-05-27T21:11:45.477Z,26.10
2018-05-27T21:14:13.595Z,26.10
2018-05-27T21:16:41.740Z,26.00
2018-05-27T21:19:09.856Z,26.00
2018-05-27T21:21:37.973Z,26.00
2018-05-27T21:24:06.081Z,26.00
2018-05-27T21:26:34.957Z,25.90
2018-05-27T21:29:03.098Z,25.90
2018-05-27T21:31:31.217Z,25.90
2018-05-27T21:33:59.333Z,25.90
2018-05-27T21:36:28.195Z,25.80
2018-05-27T21:38:57.064Z,25.80
2018-05-27T21:41:25.206Z,25.80
2018-05-27T21:43:53.325Z,25.80
2018-05-27T21:46:21.437Z,25.80
2018-05-27T21:48:50.339Z,25.80
2018-05-27T21:51:18.439Z,25.70
2018-05-27T21:53:46.576Z,25.70
2018-05-27T21:56:15.447Z,25.70
2018-05-27T21:58:43.636Z,25.70
2018-05-27T22:01:11.706Z,25.60
2018-05-27T22:03:39.807Z,25.60
2018-05-27T22:06:08.700Z,25.60
2018-05-27T22:08:37.577Z,25.60
2018-05-27T22:11:05.689Z,25.60
2018-05-27T22:13:33.824Z,25.50
2018-05-27T22:16:01.939Z,25.50
2018-05-27T22:18:30.824Z,25.50
2018-05-27T22:20:59.709Z,25.40
2018-05-27T22:23:28.582Z,25.40
2018-05-27T22:25:56.683Z,25.40
2018-05-27T22:28:25.558Z,25.40
2018-05-27T22:30:53.675Z,25.30
2018-05-27T22:33:21.822Z,25.30
2018-05-27T22:35:49.944Z,25.30
2018-05-27T22:38:18.059Z,25.30
2018-05-27T22:40:46.188Z,25.30
2018-05-27T22:43:14.314Z,25.20
2018-05-27T22:45:42.471Z,25.20
2018-05-27T22:48:10.613Z,25.20
2018-05-27T22:50:38.743Z,25.20
2018-05-27T22:53:06.894Z,25.10
2018-05-27T22:55:35.039Z,25.10
2018-05-27T22:58:03.955Z,25.10
2018-05-27T23:00:32.135Z,25.00
2018-05-27T23:03:00.293Z,25.00
2018-05-27T23:05:29.181Z,25.00
2018-05-27T23:07:58.085Z,24.90
2018-05-27T23:10:26.975Z,24.90
2018-05-27T23:12:55.897Z,24.90
2018-05-27T23:15:24.006Z,24.90
2018-05-27T23:17:52.889Z,24.90
2018-05-27T23:20:21.017Z,24.80
2018-05-27T23:22:49.131Z,24.80
2018-05-27T23:25:17.268Z,24.80
2018-05-27T23:27:46.157Z,24.70
2018-05-27T23:30:15.069Z,24.70
2018-05-27T23:32:43.953Z,24.70
2018-05-27T23:35:12.870Z,24.70
2018-05-27T23:37:40.986Z,24.60
2018-05-27T23:40:09.117Z,24.60
2018-05-27T23:42:37.252Z,24.60
2018-05-27T23:45:05.369Z,24.60
2018-05-27T23:47:33.516Z,24.50
2018-05-27T23:50:01.650Z,24.50
2018-05-27T23:52:29.840Z,24.50
2018-05-27T23:54:57.954Z,24.50
2018-05-27T23:57:26.850Z,24.40
2018-05-27T23:59:54.994Z,24.40
